Hlavní strana
METAR-TAF:

METAR-TAF

Letiště :

Letiště Sofie

Sofie, Bulharsko

zeměpisná šířka: 42-39N, zeměpisná délka: 023-23E, výška: 586 m

Aktuální stav počasí

Zpráva byla vytvořena před 47 minutami, v 01:30 UTC
Bezvětří
Teplota 1°C
Vlhkost vzduchu 93%
Tlak 1030 hPa
Viditelnost: 7000 m

METAR: LBSF 220130Z 00000KT 7000 NSC 01/M00 Q1030 NOSIG

Čas: 04:17 (02:17 UTC)

Předpověď počasí

Zpráva byla vytvořena před 3 hodinami a 17 minutami, v 23:00 UTC
Předpověď platná od 22 v 00 UTC do 22 v 24 UTC
vítr z různých směrů 4 kt
Viditelnost: 8000 m
Polojasno ve výšce 5000 ft
Dočasný
od 22 v 01 UTC do 22 v 05 UTC
Viditelnost: 3000 m
kouřmo
Pravděpodobnost 40%
od 22 v 03 UTC do 22 v 05 UTC
Viditelnost: 1500 m
kouřmo
Změna
od 22 v 06 UTC do 22 v 08 UTC
Viditelnost 10 km a více
Změna
od 22 v 11 UTC do 22 v 13 UTC
Severovýchodní vítr 12 kt

TAF: LBSF 212300Z 2200/2224 VRB04KT 8000 SCT050 TEMPO 2201/2205 3000 BR PROB40 2203/2205 1500 BR BECMG 2206/2208 9999 BECMG 2211/2213 04012KT

Stav a předpovědi počasí z více než 4 000 letišť (zprávy METAR a TAF).

Červené a žluté tečky na mapě představují dostupné meteorologické stanice.

Když kurzor umístíte na tečku, zobrazí se název stanice.

Pak kliknutím zobrazíte stav a předpověď počasí.

Chcete-li změnit mapu, kliknutím na zelené tlačítko se znaménkem +mapu přiblížíte, kliknutím na zelené tlačítko se znaménkem – mapu oddálíte a kliknutím na zelené šipky přejdete na sousední mapy.


METAR-TAF: